SBPV/PVH METAR and TAF weather

Enter ICAO airport designator
Station Type Date Time Source
SBPV METAR 2021/05/11 15:00 UTC NOAA

SBPV 111500Z 14008KT 9999 FEW030 30/26 Q1013


Station Type Date Time Source
SBPV Decoded METAR 2021/05/11 15:00 UTC NOAA

Error!

Station Type Date Time Source
SBPV TAF UTC NOAA

Error!

Example: see airport list